createdAt,value
2019-03-08T00:00:05.823Z,5.60
2019-03-08T00:02:34.287Z,5.67
2019-03-08T00:05:02.809Z,6.33
2019-03-08T00:07:31.272Z,5.60
2019-03-08T00:09:59.800Z,5.90
2019-03-08T00:12:28.252Z,5.70
2019-03-08T00:14:56.744Z,5.63
2019-03-08T00:17:25.266Z,5.80
2019-03-08T00:19:53.723Z,5.67
2019-03-08T00:22:32.525Z,5.80
2019-03-08T00:25:01.015Z,5.83
2019-03-08T00:27:29.487Z,6.07
2019-03-08T00:29:58.027Z,6.10
2019-03-08T00:32:26.635Z,6.40
2019-03-08T00:34:55.107Z,8.77
2019-03-08T00:37:23.599Z,5.43
2019-03-08T00:39:52.116Z,5.53
2019-03-08T00:42:20.677Z,5.53
2019-03-08T00:44:49.136Z,5.70
2019-03-08T00:47:17.845Z,5.50
2019-03-08T00:49:46.380Z,5.70
2019-03-08T00:52:14.840Z,5.90
2019-03-08T00:54:43.366Z,5.90
2019-03-08T00:57:11.828Z,5.40
2019-03-08T00:59:40.412Z,5.67
2019-03-08T01:02:09.353Z,5.70
2019-03-08T01:04:37.876Z,5.40
2019-03-08T01:07:07.245Z,6.40
2019-03-08T01:09:35.722Z,5.87
2019-03-08T01:12:04.205Z,6.30
2019-03-08T01:14:32.681Z,5.83
2019-03-08T01:17:01.164Z,8.40
2019-03-08T01:19:29.683Z,5.80
2019-03-08T01:21:58.169Z,6.37
2019-03-08T01:24:30.574Z,5.53
2019-03-08T01:26:59.111Z,5.70
2019-03-08T01:29:27.601Z,5.80
2019-03-08T01:31:56.083Z,5.70
2019-03-08T01:34:24.903Z,5.60
2019-03-08T01:36:53.364Z,5.67
2019-03-08T01:39:21.914Z,5.40
2019-03-08T01:41:50.445Z,5.60
2019-03-08T01:44:18.999Z,5.90
2019-03-08T01:46:47.469Z,5.47
2019-03-08T01:49:16.223Z,5.80
2019-03-08T01:51:44.683Z,5.33
2019-03-08T01:54:13.139Z,5.67
2019-03-08T01:56:42.894Z,5.80
2019-03-08T01:59:11.802Z,5.70
2019-03-08T02:01:40.276Z,5.87
2019-03-08T02:04:09.053Z,5.77
2019-03-08T02:06:37.522Z,5.50
2019-03-08T02:09:06.099Z,5.60
2019-03-08T02:11:34.589Z,5.67
2019-03-08T02:14:03.055Z,5.40
2019-03-08T02:16:31.575Z,5.60
2019-03-08T02:19:00.579Z,5.40
2019-03-08T02:21:29.102Z,5.70
2019-03-08T02:23:57.586Z,5.67
2019-03-08T02:26:26.063Z,5.50
2019-03-08T02:28:54.615Z,5.30
2019-03-08T02:31:23.132Z,5.90
2019-03-08T02:33:52.091Z,5.53
2019-03-08T02:36:20.607Z,5.57
2019-03-08T02:38:49.469Z,5.40
2019-03-08T02:41:17.984Z,5.37
2019-03-08T02:43:46.425Z,5.20
2019-03-08T02:46:14.890Z,5.53
2019-03-08T02:48:43.456Z,5.40
2019-03-08T02:51:11.947Z,5.70
2019-03-08T02:53:40.177Z,5.13
2019-03-08T02:56:08.700Z,5.37
2019-03-08T02:58:37.298Z,5.43
2019-03-08T03:01:06.205Z,6.13
2019-03-08T03:03:34.889Z,6.13
2019-03-08T03:06:03.263Z,5.50
2019-03-08T03:08:31.720Z,5.70
2019-03-08T03:11:00.237Z,5.43
2019-03-08T03:13:28.445Z,6.30
2019-03-08T03:16:00.073Z,5.10
2019-03-08T03:18:28.287Z,5.53
2019-03-08T03:20:56.973Z,5.67
2019-03-08T03:23:25.497Z,5.60
2019-03-08T03:25:53.951Z,5.70
2019-03-08T03:28:22.487Z,5.17
2019-03-08T03:30:50.822Z,5.57
2019-03-08T03:33:19.041Z,5.00
2019-03-08T03:35:47.727Z,5.37
2019-03-08T03:38:16.058Z,5.53
2019-03-08T03:40:44.276Z,5.43
2019-03-08T03:43:12.550Z,5.33
2019-03-08T03:45:40.825Z,6.00
2019-03-08T03:48:09.067Z,5.77
2019-03-08T03:50:37.280Z,6.13
2019-03-08T03:53:05.752Z,6.03
2019-03-08T03:55:34.203Z,5.50
2019-03-08T03:58:02.730Z,5.80
2019-03-08T04:00:31.200Z,6.30
2019-03-08T04:02:59.761Z,5.53
2019-03-08T04:05:28.290Z,5.90
2019-03-08T04:07:56.792Z,5.63
2019-03-08T04:10:25.260Z,6.00
2019-03-08T04:12:53.763Z,5.63
2019-03-08T04:15:22.400Z,5.33
2019-03-08T04:17:50.874Z,5.57
2019-03-08T04:20:20.391Z,5.80
2019-03-08T04:22:49.088Z,6.10
2019-03-08T04:25:20.430Z,5.50
2019-03-08T04:27:48.954Z,5.50
2019-03-08T04:30:21.334Z,5.53
2019-03-08T04:32:49.809Z,5.40
2019-03-08T04:35:18.289Z,5.23
2019-03-08T04:37:46.775Z,5.20
2019-03-08T04:40:15.313Z,5.63
2019-03-08T04:42:43.785Z,5.53
2019-03-08T04:45:15.060Z,5.30
2019-03-08T04:47:43.532Z,5.27
2019-03-08T04:50:13.241Z,5.70
2019-03-08T04:52:41.735Z,5.50
2019-03-08T04:55:13.506Z,5.70
2019-03-08T04:57:41.970Z,5.10
2019-03-08T05:00:15.439Z,5.13
2019-03-08T05:02:43.976Z,5.03
2019-03-08T05:05:12.491Z,5.43
2019-03-08T05:07:40.964Z,5.70
2019-03-08T05:10:12.548Z,5.30
2019-03-08T05:12:41.524Z,5.67
2019-03-08T05:15:11.150Z,5.70
2019-03-08T05:17:39.603Z,5.90
2019-03-08T05:20:10.125Z,5.43
2019-03-08T05:22:38.601Z,5.90
2019-03-08T05:25:09.505Z,5.70
2019-03-08T05:27:37.994Z,5.50
2019-03-08T05:30:09.918Z,5.27
2019-03-08T05:32:38.404Z,5.73
2019-03-08T05:35:08.671Z,5.70
2019-03-08T05:37:37.187Z,5.50
2019-03-08T05:40:10.625Z,5.43
2019-03-08T05:42:39.151Z,5.77
2019-03-08T05:45:11.652Z,5.73
2019-03-08T05:47:40.172Z,5.60
2019-03-08T05:50:12.516Z,5.80
2019-03-08T05:52:41.788Z,5.80
2019-03-08T05:55:11.340Z,5.50
2019-03-08T05:57:39.811Z,5.37
2019-03-08T06:00:18.093Z,5.83
2019-03-08T06:02:46.564Z,6.37
2019-03-08T06:05:15.076Z,6.40
2019-03-08T06:07:43.318Z,5.83
2019-03-08T06:10:29.101Z,6.30
2019-03-08T06:12:58.113Z,6.30
2019-03-08T06:15:26.732Z,5.93
2019-03-08T06:17:56.469Z,5.90
2019-03-08T06:20:25.332Z,5.63
2019-03-08T06:22:53.795Z,5.63
2019-03-08T06:25:22.402Z,5.83
2019-03-08T06:27:50.868Z,5.47
2019-03-08T06:30:19.399Z,5.93
2019-03-08T06:32:47.955Z,5.70
2019-03-08T06:35:16.433Z,6.00
2019-03-08T06:37:44.904Z,5.80
2019-03-08T06:40:14.060Z,5.77
2019-03-08T06:42:42.606Z,5.83
2019-03-08T06:45:13.808Z,5.57
2019-03-08T06:47:43.282Z,5.47
2019-03-08T06:50:12.296Z,5.93
2019-03-08T06:52:40.768Z,5.80
2019-03-08T06:55:11.908Z,5.27
2019-03-08T06:57:40.513Z,5.70
2019-03-08T07:00:16.951Z,5.77
2019-03-08T07:02:45.596Z,5.63
2019-03-08T07:05:14.105Z,5.83
2019-03-08T07:07:42.682Z,5.70
2019-03-08T07:10:11.495Z,6.03
2019-03-08T07:12:40.015Z,5.90
2019-03-08T07:15:08.491Z,6.57
2019-03-08T07:17:37.885Z,6.20
2019-03-08T07:20:09.340Z,6.10
2019-03-08T07:22:45.343Z,6.20
2019-03-08T07:25:31.954Z,6.23
2019-03-08T07:28:02.191Z,5.67
2019-03-08T07:30:41.306Z,6.47
2019-03-08T07:33:20.159Z,6.00
2019-03-08T07:36:08.692Z,6.47
2019-03-08T07:38:38.904Z,6.27
2019-03-08T07:41:14.729Z,6.33
2019-03-08T07:44:01.529Z,6.00
2019-03-08T07:46:34.591Z,6.07
2019-03-08T07:49:04.770Z,6.20
2019-03-08T07:51:40.729Z,6.43
2019-03-08T07:54:11.496Z,6.20
2019-03-08T07:56:41.623Z,6.10
2019-03-08T07:59:23.981Z,6.10
2019-03-08T08:01:59.818Z,5.93
2019-03-08T08:04:36.192Z,6.57
2019-03-08T08:07:12.229Z,6.10
2019-03-08T08:09:42.335Z,6.00
2019-03-08T08:12:15.453Z,6.47
2019-03-08T08:15:00.958Z,6.23
2019-03-08T08:17:49.640Z,6.37
2019-03-08T08:20:31.768Z,6.27
2019-03-08T08:23:11.156Z,6.43
2019-03-08T08:25:57.588Z,6.23
2019-03-08T08:28:27.713Z,6.40
2019-03-08T08:31:15.912Z,6.10
2019-03-08T08:33:55.068Z,5.77
2019-03-08T08:36:25.558Z,6.00
2019-03-08T08:39:07.920Z,6.57
2019-03-08T08:41:40.952Z,6.10
2019-03-08T08:44:11.052Z,6.63
2019-03-08T08:46:58.231Z,6.23
2019-03-08T08:49:37.376Z,6.23
2019-03-08T08:52:25.833Z,6.33
2019-03-08T08:54:55.951Z,6.50
2019-03-08T08:57:34.992Z,6.00
2019-03-08T09:00:11.547Z,6.33
2019-03-08T09:02:47.861Z,6.37
2019-03-08T09:05:23.773Z,5.90
2019-03-08T09:08:09.894Z,6.30
2019-03-08T09:10:46.287Z,6.40
2019-03-08T09:13:22.301Z,6.47
2019-03-08T09:16:08.462Z,6.17
2019-03-08T09:18:44.505Z,6.37
2019-03-08T09:21:23.741Z,6.47
2019-03-08T09:24:12.226Z,7.10
2019-03-08T09:26:45.604Z,6.20
2019-03-08T09:29:19.119Z,6.73
2019-03-08T09:31:49.236Z,6.63
2019-03-08T09:34:19.440Z,6.37
2019-03-08T09:36:49.563Z,5.83
2019-03-08T09:39:29.308Z,6.47
2019-03-08T09:41:59.511Z,6.27
2019-03-08T09:44:44.951Z,6.63
2019-03-08T09:47:15.811Z,6.23
2019-03-08T09:49:48.528Z,6.57
2019-03-08T09:52:18.652Z,6.77
2019-03-08T09:55:00.841Z,7.00
2019-03-08T09:57:40.711Z,7.33
2019-03-08T10:00:28.319Z,6.93
2019-03-08T10:03:01.542Z,6.50
2019-03-08T10:05:37.881Z,6.90
2019-03-08T10:08:10.743Z,6.50
2019-03-08T10:10:43.571Z,6.80
2019-03-08T10:13:29.882Z,6.10
2019-03-08T10:16:00.000Z,6.93
2019-03-08T10:18:30.111Z,6.50
2019-03-08T10:21:16.748Z,6.97
2019-03-08T10:23:59.337Z,6.50
2019-03-08T10:26:29.536Z,6.80
2019-03-08T10:29:05.535Z,6.80
2019-03-08T10:31:50.963Z,6.60
2019-03-08T10:34:27.165Z,6.70
2019-03-08T10:37:06.147Z,7.00
2019-03-08T10:39:45.287Z,7.10
2019-03-08T10:42:17.888Z,6.57
2019-03-08T10:45:04.594Z,6.80
2019-03-08T10:47:55.999Z,6.80
2019-03-08T10:50:24.276Z,6.70
2019-03-08T10:53:03.530Z,6.87
2019-03-08T10:55:39.625Z,6.67
2019-03-08T10:58:26.371Z,6.77
2019-03-08T11:01:05.471Z,6.10
2019-03-08T11:03:41.428Z,7.03
2019-03-08T11:06:14.444Z,6.53
2019-03-08T11:08:53.713Z,6.90
2019-03-08T11:11:23.843Z,6.80
2019-03-08T11:14:05.610Z,6.40
2019-03-08T11:16:38.504Z,6.70
2019-03-08T11:19:09.133Z,6.30
2019-03-08T11:21:51.483Z,6.90
2019-03-08T11:24:30.304Z,6.67
2019-03-08T11:27:15.402Z,6.53
2019-03-08T11:29:57.616Z,6.10
2019-03-08T11:32:44.180Z,6.80
2019-03-08T11:35:16.859Z,6.47
2019-03-08T11:37:51.674Z,6.50
2019-03-08T11:40:36.997Z,6.30
2019-03-08T11:43:19.032Z,7.00
2019-03-08T11:45:49.129Z,6.13
2019-03-08T11:48:37.670Z,6.47
2019-03-08T11:51:24.215Z,6.17
2019-03-08T11:54:06.498Z,6.10
2019-03-08T11:56:42.570Z,6.10
2019-03-08T11:59:15.279Z,6.40
2019-03-08T12:01:56.964Z,6.47
2019-03-08T12:04:30.276Z,6.17
2019-03-08T12:07:16.862Z,5.87
2019-03-08T12:09:52.845Z,6.53
2019-03-08T12:12:37.906Z,6.23
2019-03-08T12:15:09.400Z,6.27
2019-03-08T12:17:42.123Z,6.07
2019-03-08T12:20:18.511Z,6.70
2019-03-08T12:22:54.476Z,7.47
2019-03-08T12:25:27.288Z,7.20
2019-03-08T12:27:57.303Z,6.63
2019-03-08T12:30:33.039Z,8.10
2019-03-08T12:33:09.151Z,7.40
2019-03-08T12:35:39.028Z,8.30
2019-03-08T12:38:09.016Z,8.43
2019-03-08T12:40:56.701Z,8.40
2019-03-08T12:43:41.838Z,8.10
2019-03-08T12:46:14.298Z,8.33
2019-03-08T12:48:44.168Z,8.33
2019-03-08T12:51:19.993Z,8.83
2019-03-08T12:53:49.878Z,8.93
2019-03-08T12:56:19.772Z,40.17
2019-03-08T12:58:52.232Z,28.03
2019-03-08T13:01:25.485Z,29.20
2019-03-08T13:04:01.147Z,27.53
2019-03-08T13:06:31.015Z,28.60
2019-03-08T13:09:06.755Z,21.37
2019-03-08T13:11:35.308Z,27.33
2019-03-08T13:14:04.083Z,23.20
2019-03-08T13:16:32.370Z,21.77
2019-03-08T13:19:00.803Z,27.37
2019-03-08T13:21:29.429Z,24.93
2019-03-08T13:23:57.685Z,24.50
2019-03-08T13:26:26.469Z,20.87
2019-03-08T13:28:54.718Z,19.13
2019-03-08T13:31:23.002Z,20.83
2019-03-08T13:33:51.300Z,17.03
2019-03-08T13:36:19.524Z,23.33
2019-03-08T13:38:47.786Z,35.63
2019-03-08T13:41:16.101Z,33.87
2019-03-08T13:43:44.328Z,28.13
2019-03-08T13:46:12.606Z,27.13
2019-03-08T13:48:40.910Z,22.77
2019-03-08T13:51:09.128Z,21.87
2019-03-08T13:53:37.387Z,19.53
2019-03-08T13:56:05.689Z,19.40
2019-03-08T13:58:33.903Z,22.33
2019-03-08T14:01:02.247Z,20.17
2019-03-08T14:03:30.505Z,20.00
2019-03-08T14:05:58.787Z,21.30
2019-03-08T14:08:27.035Z,22.57
2019-03-08T14:10:55.338Z,20.43
2019-03-08T14:13:23.670Z,18.20
2019-03-08T14:15:51.892Z,17.10
2019-03-08T14:18:20.152Z,16.10
2019-03-08T14:20:48.400Z,17.90
2019-03-08T14:23:16.686Z,17.27
2019-03-08T14:25:44.953Z,18.67
2019-03-08T14:28:15.102Z,15.03
2019-03-08T14:30:57.834Z,16.73
2019-03-08T14:33:24.034Z,15.87
2019-03-08T14:35:52.348Z,16.23
2019-03-08T14:38:20.622Z,15.97
2019-03-08T14:40:57.338Z,15.60
2019-03-08T14:43:41.771Z,14.13
2019-03-08T14:46:11.654Z,16.27
2019-03-08T14:48:42.569Z,17.00
2019-03-08T14:51:13.076Z,16.63
2019-03-08T14:53:40.256Z,13.17
2019-03-08T14:56:08.538Z,14.53
2019-03-08T14:58:40.239Z,17.20
2019-03-08T15:01:07.393Z,12.93
2019-03-08T15:03:43.400Z,14.67
2019-03-08T15:06:05.844Z,13.57
2019-03-08T15:08:34.109Z,11.53
2019-03-08T15:11:02.394Z,13.87
2019-03-08T15:13:30.691Z,11.80
2019-03-08T15:16:03.680Z,12.23
2019-03-08T15:18:32.343Z,13.83
2019-03-08T15:21:00.605Z,13.77
2019-03-08T15:23:28.864Z,12.97
2019-03-08T15:25:57.187Z,13.87
2019-03-08T15:28:25.835Z,13.00
2019-03-08T15:30:54.099Z,13.07
2019-03-08T15:33:22.336Z,11.70
2019-03-08T15:35:50.621Z,13.07
2019-03-08T15:38:18.854Z,12.50
2019-03-08T15:40:48.776Z,12.57
2019-03-08T15:43:17.175Z,12.87
2019-03-08T15:45:46.214Z,13.90
2019-03-08T15:48:15.878Z,12.77
2019-03-08T15:50:46.716Z,12.13
2019-03-08T15:53:14.346Z,11.77
2019-03-08T15:55:52.232Z,10.97
2019-03-08T15:58:12.876Z,12.73
2019-03-08T16:00:41.127Z,11.70
2019-03-08T16:03:11.129Z,11.67
2019-03-08T16:05:39.749Z,12.07
2019-03-08T16:08:08.076Z,11.10
2019-03-08T16:10:36.383Z,12.73
2019-03-08T16:13:04.634Z,13.00
2019-03-08T16:15:32.900Z,11.57
2019-03-08T16:18:01.136Z,10.97
2019-03-08T16:20:29.398Z,13.23
2019-03-08T16:22:57.735Z,11.70
2019-03-08T16:25:26.031Z,10.93
2019-03-08T16:27:54.410Z,11.80
2019-03-08T16:30:31.756Z,11.13
2019-03-08T16:33:19.596Z,11.27
2019-03-08T16:36:06.315Z,11.30
2019-03-08T16:38:48.186Z,11.63
2019-03-08T16:41:34.366Z,11.13
2019-03-08T16:44:22.657Z,12.03
2019-03-08T16:46:58.551Z,11.03
2019-03-08T16:49:34.351Z,11.20
2019-03-08T16:52:04.357Z,11.00
2019-03-08T16:54:36.942Z,11.27
2019-03-08T16:57:15.687Z,11.30
2019-03-08T17:00:04.197Z,11.53
2019-03-08T17:02:37.629Z,11.03
2019-03-08T17:05:07.508Z,11.43
2019-03-08T17:07:40.165Z,10.53
2019-03-08T17:10:12.831Z,11.40
2019-03-08T17:12:42.739Z,11.30
2019-03-08T17:15:29.489Z,11.03
2019-03-08T17:18:08.378Z,10.70
2019-03-08T17:20:38.559Z,12.23
2019-03-08T17:23:14.550Z,11.50
2019-03-08T17:25:50.301Z,10.73
2019-03-08T17:28:20.215Z,10.57
2019-03-08T17:30:59.222Z,11.33
2019-03-08T17:33:29.510Z,10.33
2019-03-08T17:35:59.412Z,11.37
2019-03-08T17:38:29.286Z,10.83
2019-03-08T17:41:05.263Z,11.20
2019-03-08T17:43:35.136Z,10.90
2019-03-08T17:46:10.599Z,10.63
2019-03-08T17:48:49.221Z,11.50
2019-03-08T17:51:22.163Z,11.13
2019-03-08T17:53:57.772Z,11.33
2019-03-08T17:56:27.666Z,11.27
2019-03-08T17:58:57.549Z,10.77
2019-03-08T18:01:39.706Z,10.87
2019-03-08T18:04:21.831Z,10.97
2019-03-08T18:06:51.749Z,10.57
2019-03-08T18:09:34.267Z,10.63
2019-03-08T18:12:13.183Z,10.23
2019-03-08T18:14:59.306Z,10.00
2019-03-08T18:18:01.580Z,10.30
2019-03-08T18:20:34.240Z,10.20
2019-03-08T18:23:16.870Z,10.07
2019-03-08T18:25:59.006Z,11.30
2019-03-08T18:28:45.467Z,10.53
2019-03-08T18:31:15.369Z,10.30
2019-03-08T18:33:51.343Z,9.90
2019-03-08T18:36:21.281Z,10.50
2019-03-08T18:38:51.307Z,10.07
2019-03-08T18:41:27.085Z,10.40
2019-03-08T18:43:56.987Z,10.13
2019-03-08T18:46:27.270Z,9.93
2019-03-08T18:49:03.289Z,9.83
2019-03-08T18:51:33.201Z,10.37
2019-03-08T18:54:03.507Z,9.27
2019-03-08T18:56:36.519Z,10.27
2019-03-08T18:59:24.457Z,9.83
2019-03-08T19:01:54.330Z,9.90
2019-03-08T19:04:24.250Z,9.73
2019-03-08T19:06:54.291Z,9.73
2019-03-08T19:09:24.520Z,9.83
2019-03-08T19:11:56.977Z,9.53
2019-03-08T19:14:32.986Z,10.27
2019-03-08T19:17:09.087Z,10.40
2019-03-08T19:19:57.677Z,9.40
2019-03-08T19:22:44.125Z,9.97
2019-03-08T19:25:22.690Z,9.67
2019-03-08T19:28:08.745Z,9.37
2019-03-08T19:30:38.753Z,9.60
2019-03-08T19:33:11.730Z,9.57
2019-03-08T19:35:44.423Z,9.37
2019-03-08T19:38:14.301Z,9.23
2019-03-08T19:41:00.211Z,9.60
2019-03-08T19:43:42.360Z,8.47
2019-03-08T19:46:18.350Z,9.63
2019-03-08T19:48:48.222Z,8.87
2019-03-08T19:51:34.792Z,9.20
2019-03-08T19:54:13.952Z,9.03
2019-03-08T19:56:43.872Z,10.00
2019-03-08T19:59:13.859Z,10.27
2019-03-08T20:01:46.554Z,9.10
2019-03-08T20:04:16.426Z,9.40
2019-03-08T20:07:04.691Z,9.80
2019-03-08T20:09:52.355Z,10.27
2019-03-08T20:12:34.155Z,10.10
2019-03-08T20:15:20.387Z,9.77
2019-03-08T20:18:02.157Z,9.13
2019-03-08T20:20:48.564Z,9.20
2019-03-08T20:23:18.439Z,9.30
2019-03-08T20:26:04.649Z,9.27
2019-03-08T20:28:38.042Z,9.73
2019-03-08T20:31:10.703Z,9.17
2019-03-08T20:33:40.562Z,9.10
2019-03-08T20:36:13.347Z,9.17
2019-03-08T20:38:49.501Z,9.03
2019-03-08T20:41:28.423Z,8.90
2019-03-08T20:43:58.365Z,9.60
2019-03-08T20:46:46.292Z,9.87
2019-03-08T20:49:14.589Z,9.03
2019-03-08T20:51:42.871Z,8.97
2019-03-08T20:54:11.112Z,9.07
2019-03-08T20:56:39.405Z,9.73
2019-03-08T20:59:08.588Z,9.40
2019-03-08T21:01:36.816Z,9.57
2019-03-08T21:04:05.064Z,9.70
2019-03-08T21:06:33.308Z,9.33
2019-03-08T21:09:01.531Z,9.40
2019-03-08T21:11:29.787Z,9.67
2019-03-08T21:13:57.993Z,9.43
2019-03-08T21:16:26.292Z,9.80
2019-03-08T21:18:54.584Z,9.80
2019-03-08T21:21:22.815Z,9.43
2019-03-08T21:23:51.462Z,10.07
2019-03-08T21:26:19.701Z,9.60
2019-03-08T21:28:47.915Z,9.30
2019-03-08T21:31:16.235Z,10.87
2019-03-08T21:33:44.461Z,10.13
2019-03-08T21:36:12.765Z,10.20
2019-03-08T21:38:44.140Z,9.73
2019-03-08T21:41:12.492Z,9.93
2019-03-08T21:43:40.725Z,10.63
2019-03-08T21:46:08.942Z,9.90
2019-03-08T21:48:37.209Z,9.73
2019-03-08T21:51:05.431Z,9.90
2019-03-08T21:53:33.795Z,10.00
2019-03-08T21:56:02.407Z,10.07
2019-03-08T21:58:31.013Z,9.83
2019-03-08T22:00:59.312Z,9.83
2019-03-08T22:03:27.606Z,9.73
2019-03-08T22:05:55.917Z,10.10
2019-03-08T22:08:24.458Z,9.70
2019-03-08T22:11:07.050Z,10.00
2019-03-08T22:13:35.309Z,9.40
2019-03-08T22:16:03.577Z,10.10
2019-03-08T22:18:32.096Z,10.50
2019-03-08T22:21:00.490Z,9.70
2019-03-08T22:23:28.842Z,10.17
2019-03-08T22:25:57.199Z,9.20
2019-03-08T22:28:25.781Z,9.67
2019-03-08T22:30:54.037Z,9.60
2019-03-08T22:33:23.075Z,9.70
2019-03-08T22:35:51.399Z,9.90
2019-03-08T22:38:19.624Z,9.93
2019-03-08T22:40:47.977Z,9.27
2019-03-08T22:43:16.202Z,9.80
2019-03-08T22:45:44.428Z,8.90
2019-03-08T22:48:12.713Z,10.00
2019-03-08T22:50:40.929Z,9.87
2019-03-08T22:53:09.205Z,10.33
2019-03-08T22:55:37.506Z,9.57
2019-03-08T22:58:05.773Z,10.07
2019-03-08T23:00:46.412Z,9.73
2019-03-08T23:03:15.182Z,9.43
2019-03-08T23:05:43.411Z,10.70
2019-03-08T23:08:12.037Z,9.93
2019-03-08T23:10:40.255Z,9.80
2019-03-08T23:13:08.481Z,9.53
2019-03-08T23:15:36.776Z,9.33
2019-03-08T23:18:05.103Z,9.83
2019-03-08T23:20:33.334Z,9.93
2019-03-08T23:23:01.607Z,9.60
2019-03-08T23:25:30.341Z,10.20
2019-03-08T23:28:16.951Z,10.30
2019-03-08T23:30:46.884Z,10.43
2019-03-08T23:33:15.190Z,9.73
2019-03-08T23:35:43.423Z,9.57
2019-03-08T23:38:11.651Z,9.20
2019-03-08T23:40:39.947Z,9.67
2019-03-08T23:43:08.223Z,9.83
2019-03-08T23:45:36.536Z,9.27
2019-03-08T23:48:04.797Z,9.57
2019-03-08T23:50:33.428Z,9.07
2019-03-08T23:53:01.689Z,9.43
2019-03-08T23:55:29.917Z,9.90
2019-03-08T23:57:58.163Z,9.93
